sensor_id;sensor_type;location;lat;lon;timestamp;P1;P2;P0
56360;PMS7003;42611;51.132;13.588;2023-02-28T00:00:02;16.2;14.9;
56360;PMS7003;42611;51.132;13.588;2023-02-28T00:05:01;16.9;15.2;
56360;PMS7003;42611;51.132;13.588;2023-02-28T00:10:02;17.8;16.2;
56360;PMS7003;42611;51.132;13.588;2023-02-28T00:15:05;17.4;15.6;
56360;PMS7003;42611;51.132;13.588;2023-02-28T00:20:06;17.7;16.3;
56360;PMS7003;42611;51.132;13.588;2023-02-28T00:25:02;17.6;15.5;
56360;PMS7003;42611;51.132;13.588;2023-02-28T00:30:10;17.3;15.4;
56360;PMS7003;42611;51.132;13.588;2023-02-28T00:35:03;16.1;14.2;
56360;PMS7003;42611;51.132;13.588;2023-02-28T00:45:02;17.4;14.8;
56360;PMS7003;42611;51.132;13.588;2023-02-28T00:50:02;18.6;15.4;
56360;PMS7003;42611;51.132;13.588;2023-02-28T00:55:07;18.9;16.2;
56360;PMS7003;42611;51.132;13.588;2023-02-28T01:00:02;19.9;17.2;
56360;PMS7003;42611;51.132;13.588;2023-02-28T01:05:02;18.8;17.0;
56360;PMS7003;42611;51.132;13.588;2023-02-28T01:10:06;18.4;16.3;
56360;PMS7003;42611;51.132;13.588;2023-02-28T01:15:01;16.9;15.6;
56360;PMS7003;42611;51.132;13.588;2023-02-28T01:20:01;16.4;14.6;
56360;PMS7003;42611;51.132;13.588;2023-02-28T01:25:01;16.7;14.4;
56360;PMS7003;42611;51.132;13.588;2023-02-28T01:30:03;16.2;13.9;
56360;PMS7003;42611;51.132;13.588;2023-02-28T01:35:06;16.8;14.2;
56360;PMS7003;42611;51.132;13.588;2023-02-28T01:40:01;16.9;14.7;
56360;PMS7003;42611;51.132;13.588;2023-02-28T01:45:19;16.9;14.7;
56360;PMS7003;42611;51.132;13.588;2023-02-28T01:50:07;17.8;15.5;
56360;PMS7003;42611;51.132;13.588;2023-02-28T01:55:06;18.5;15.7;
56360;PMS7003;42611;51.132;13.588;2023-02-28T02:00:08;17.0;15.0;
56360;PMS7003;42611;51.132;13.588;2023-02-28T02:05:10;17.2;14.5;
56360;PMS7003;42611;51.132;13.588;2023-02-28T02:10:03;17.3;15.0;
56360;PMS7003;42611;51.132;13.588;2023-02-28T02:15:20;16.6;14.2;
56360;PMS7003;42611;51.132;13.588;2023-02-28T02:35:08;15.8;13.3;
56360;PMS7003;42611;51.132;13.588;2023-02-28T02:40:04;15.3;13.3;
56360;PMS7003;42611;51.132;13.588;2023-02-28T02:45:15;15.2;13.4;
56360;PMS7003;42611;51.132;13.588;2023-02-28T02:50:02;16.8;14.6;
56360;PMS7003;42611;51.132;13.588;2023-02-28T02:55:06;16.0;14.6;
56360;PMS7003;42611;51.132;13.588;2023-02-28T03:00:05;17.1;16.3;
56360;PMS7003;42611;51.132;13.588;2023-02-28T03:05:03;17.8;16.6;
56360;PMS7003;42611;51.132;13.588;2023-02-28T03:10:30;18.8;17.1;
56360;PMS7003;42611;51.132;13.588;2023-02-28T03:15:20;17.8;16.6;
56360;PMS7003;42611;51.132;13.588;2023-02-28T03:20:16;17.5;16.1;
56360;PMS7003;42611;51.132;13.588;2023-02-28T03:30:22;17.7;16.2;
56360;PMS7003;42611;51.132;13.588;2023-02-28T03:35:14;17.6;16.4;
56360;PMS7003;42611;51.132;13.588;2023-02-28T03:40:13;17.5;16.2;
56360;PMS7003;42611;51.132;13.588;2023-02-28T03:45:24;18.5;16.8;
56360;PMS7003;42611;51.132;13.588;2023-02-28T03:50:03;19.2;17.5;
56360;PMS7003;42611;51.132;13.588;2023-02-28T03:55:07;18.2;16.7;
56360;PMS7003;42611;51.132;13.588;2023-02-28T04:00:14;17.1;15.8;
56360;PMS7003;42611;51.132;13.588;2023-02-28T04:05:01;17.4;15.7;
56360;PMS7003;42611;51.132;13.588;2023-02-28T04:10:01;16.6;14.7;
56360;PMS7003;42611;51.132;13.588;2023-02-28T04:15:07;16.1;14.4;
56360;PMS7003;42611;51.132;13.588;2023-02-28T04:20:06;16.3;14.6;
56360;PMS7003;42611;51.132;13.588;2023-02-28T04:25:08;17.0;15.2;
56360;PMS7003;42611;51.132;13.588;2023-02-28T04:30:07;19.0;17.0;
56360;PMS7003;42611;51.132;13.588;2023-02-28T04:35:01;19.5;17.7;
56360;PMS7003;42611;51.132;13.588;2023-02-28T04:40:01;20.8;16.9;
56360;PMS7003;42611;51.132;13.588;2023-02-28T04:45:03;21.5;17.2;
56360;PMS7003;42611;51.132;13.588;2023-02-28T04:50:02;20.8;15.4;
56360;PMS7003;42611;51.132;13.588;2023-02-28T04:55:03;19.4;14.7;
56360;PMS7003;42611;51.132;13.588;2023-02-28T05:00:09;19.6;15.0;
56360;PMS7003;42611;51.132;13.588;2023-02-28T05:05:01;19.4;16.4;
56360;PMS7003;42611;51.132;13.588;2023-02-28T05:10:07;19.2;16.5;
56360;PMS7003;42611;51.132;13.588;2023-02-28T05:15:03;19.2;17.6;
56360;PMS7003;42611;51.132;13.588;2023-02-28T05:20:16;17.9;15.5;
56360;PMS7003;42611;51.132;13.588;2023-02-28T05:25:06;18.5;16.0;
56360;PMS7003;42611;51.132;13.588;2023-02-28T05:30:07;17.8;15.4;
56360;PMS7003;42611;51.132;13.588;2023-02-28T05:35:02;18.0;14.7;
56360;PMS7003;42611;51.132;13.588;2023-02-28T05:41:06;19.8;15.6;
56360;PMS7003;42611;51.132;13.588;2023-02-28T05:46:07;20.9;16.8;
56360;PMS7003;42611;51.132;13.588;2023-02-28T05:51:01;20.3;16.6;
56360;PMS7003;42611;51.132;13.588;2023-02-28T05:56:02;19.1;16.0;
56360;PMS7003;42611;51.132;13.588;2023-02-28T06:01:19;19.5;17.0;
56360;PMS7003;42611;51.132;13.588;2023-02-28T06:06:01;20.3;18.1;
56360;PMS7003;42611;51.132;13.588;2023-02-28T06:11:03;19.7;18.2;
56360;PMS7003;42611;51.132;13.588;2023-02-28T06:16:01;19.8;17.8;
56360;PMS7003;42611;51.132;13.588;2023-02-28T06:21:06;20.2;17.8;
56360;PMS7003;42611;51.132;13.588;2023-02-28T06:26:01;23.0;19.8;
56360;PMS7003;42611;51.132;13.588;2023-02-28T06:31:10;23.4;20.4;
56360;PMS7003;42611;51.132;13.588;2023-02-28T06:37:02;25.2;21.4;
56360;PMS7003;42611;51.132;13.588;2023-02-28T06:42:07;25.9;22.1;
56360;PMS7003;42611;51.132;13.588;2023-02-28T06:47:02;26.7;23.2;
56360;PMS7003;42611;51.132;13.588;2023-02-28T06:52:06;24.7;21.9;
56360;PMS7003;42611;51.132;13.588;2023-02-28T06:57:02;21.3;18.6;
56360;PMS7003;42611;51.132;13.588;2023-02-28T07:02:07;20.7;17.7;
56360;PMS7003;42611;51.132;13.588;2023-02-28T07:07:02;22.4;19.0;
56360;PMS7003;42611;51.132;13.588;2023-02-28T07:12:02;23.5;19.9;
56360;PMS7003;42611;51.132;13.588;2023-02-28T07:17:08;22.8;19.4;
56360;PMS7003;42611;51.132;13.588;2023-02-28T07:22:02;23.0;19.9;
56360;PMS7003;42611;51.132;13.588;2023-02-28T07:28:01;25.3;22.5;
56360;PMS7003;42611;51.132;13.588;2023-02-28T07:33:01;25.8;22.6;
56360;PMS7003;42611;51.132;13.588;2023-02-28T07:38:07;28.9;25.1;
56360;PMS7003;42611;51.132;13.588;2023-02-28T07:43:01;34.1;29.6;
56360;PMS7003;42611;51.132;13.588;2023-02-28T07:48:02;45.9;38.2;
56360;PMS7003;42611;51.132;13.588;2023-02-28T07:53:01;53.0;43.3;
56360;PMS7003;42611;51.132;13.588;2023-02-28T07:58:01;59.2;47.8;
56360;PMS7003;42611;51.132;13.588;2023-02-28T08:03:01;59.6;47.8;
56360;PMS7003;42611;51.132;13.588;2023-02-28T08:08:07;59.2;47.0;
56360;PMS7003;42611;51.132;13.588;2023-02-28T08:28:41;51.2;41.2;
56360;PMS7003;42611;51.132;13.588;2023-02-28T08:34:18;51.9;41.4;
56360;PMS7003;42611;51.132;13.588;2023-02-28T08:40:16;49.7;40.2;
56360;PMS7003;42611;51.132;13.588;2023-02-28T08:46:21;46.6;38.6;
56360;PMS7003;42611;51.132;13.588;2023-02-28T08:52:13;42.0;35.0;
56360;PMS7003;42611;51.132;13.588;2023-02-28T08:58:17;37.7;32.6;
56360;PMS7003;42611;51.132;13.588;2023-02-28T09:04:11;34.0;30.1;
56360;PMS7003;42611;51.132;13.588;2023-02-28T09:10:15;32.2;28.7;
56360;PMS7003;42611;51.132;13.588;2023-02-28T09:16:15;31.8;28.2;
56360;PMS7003;42611;51.132;13.588;2023-02-28T09:22:09;32.4;29.0;
56360;PMS7003;42611;51.132;13.588;2023-02-28T09:28:13;32.0;28.2;
56360;PMS7003;42611;51.132;13.588;2023-02-28T09:34:12;31.2;28.0;
56360;PMS7003;42611;51.132;13.588;2023-02-28T09:39:06;30.0;27.0;
56360;PMS7003;42611;51.132;13.588;2023-02-28T09:45:18;28.0;25.6;
56360;PMS7003;42611;51.132;13.588;2023-02-28T09:50:12;28.2;25.6;
56360;PMS7003;42611;51.132;13.588;2023-02-28T09:56:11;26.6;24.7;
56360;PMS7003;42611;51.132;13.588;2023-02-28T10:01:07;26.7;24.2;
56360;PMS7003;42611;51.132;13.588;2023-02-28T10:06:07;24.8;22.6;
56360;PMS7003;42611;51.132;13.588;2023-02-28T10:12:09;24.9;22.5;
56360;PMS7003;42611;51.132;13.588;2023-02-28T10:17:05;24.7;23.0;
56360;PMS7003;42611;51.132;13.588;2023-02-28T10:27:20;24.0;22.5;
56360;PMS7003;42611;51.132;13.588;2023-02-28T10:33:03;26.3;23.4;
56360;PMS7003;42611;51.132;13.588;2023-02-28T10:38:05;26.4;23.6;
56360;PMS7003;42611;51.132;13.588;2023-02-28T10:43:03;24.5;21.6;
56360;PMS7003;42611;51.132;13.588;2023-02-28T10:48:45;24.9;21.9;
56360;PMS7003;42611;51.132;13.588;2023-02-28T10:53:13;24.3;21.5;
56360;PMS7003;42611;51.132;13.588;2023-02-28T10:58:25;23.5;21.4;
56360;PMS7003;42611;51.132;13.588;2023-02-28T11:04:02;23.8;21.7;
56360;PMS7003;42611;51.132;13.588;2023-02-28T11:09:41;26.4;24.3;
56360;PMS7003;42611;51.132;13.588;2023-02-28T11:14:14;27.9;25.1;
56360;PMS7003;42611;51.132;13.588;2023-02-28T11:19:02;28.5;25.7;
56360;PMS7003;42611;51.132;13.588;2023-02-28T11:24:04;28.8;25.2;
56360;PMS7003;42611;51.132;13.588;2023-02-28T11:29:03;27.8;24.9;
56360;PMS7003;42611;51.132;13.588;2023-02-28T11:34:10;28.2;24.8;
56360;PMS7003;42611;51.132;13.588;2023-02-28T11:39:10;29.5;26.6;
56360;PMS7003;42611;51.132;13.588;2023-02-28T11:44:15;30.4;27.7;
56360;PMS7003;42611;51.132;13.588;2023-02-28T11:49:06;32.6;29.8;
56360;PMS7003;42611;51.132;13.588;2023-02-28T11:54:17;34.6;31.0;
56360;PMS7003;42611;51.132;13.588;2023-02-28T11:59:18;33.8;30.6;
56360;PMS7003;42611;51.132;13.588;2023-02-28T12:10:24;31.8;28.6;
56360;PMS7003;42611;51.132;13.588;2023-02-28T12:15:28;30.2;28.2;
56360;PMS7003;42611;51.132;13.588;2023-02-28T12:20:21;30.7;28.7;
56360;PMS7003;42611;51.132;13.588;2023-02-28T12:30:28;29.7;26.6;
56360;PMS7003;42611;51.132;13.588;2023-02-28T12:55:12;33.6;30.0;
56360;PMS7003;42611;51.132;13.588;2023-02-28T13:00:13;34.3;30.5;
56360;PMS7003;42611;51.132;13.588;2023-02-28T13:10:02;33.7;29.8;
56360;PMS7003;42611;51.132;13.588;2023-02-28T13:16:07;30.7;27.5;
56360;PMS7003;42611;51.132;13.588;2023-02-28T13:21:01;30.6;27.7;
56360;PMS7003;42611;51.132;13.588;2023-02-28T13:26:01;29.7;26.2;
56360;PMS7003;42611;51.132;13.588;2023-02-28T13:31:03;29.8;26.3;
56360;PMS7003;42611;51.132;13.588;2023-02-28T13:36:08;30.0;25.9;
56360;PMS7003;42611;51.132;13.588;2023-02-28T13:46:06;33.2;29.0;
56360;PMS7003;42611;51.132;13.588;2023-02-28T13:51:16;32.8;28.9;
56360;PMS7003;42611;51.132;13.588;2023-02-28T13:56:23;31.0;27.5;
56360;PMS7003;42611;51.132;13.588;2023-02-28T14:06:07;32.9;28.9;
56360;PMS7003;42611;51.132;13.588;2023-02-28T14:11:03;33.2;28.7;
56360;PMS7003;42611;51.132;13.588;2023-02-28T14:17:07;34.8;30.7;
56360;PMS7003;42611;51.132;13.588;2023-02-28T14:22:04;39.1;33.7;
56360;PMS7003;42611;51.132;13.588;2023-02-28T14:27:21;41.1;34.7;
56360;PMS7003;42611;51.132;13.588;2023-02-28T14:32:02;39.4;33.5;
56360;PMS7003;42611;51.132;13.588;2023-02-28T14:37:02;39.7;33.6;
56360;PMS7003;42611;51.132;13.588;2023-02-28T14:42:24;41.1;34.4;
56360;PMS7003;42611;51.132;13.588;2023-02-28T14:47:02;39.4;33.6;
56360;PMS7003;42611;51.132;13.588;2023-02-28T14:57:02;40.0;34.6;
56360;PMS7003;42611;51.132;13.588;2023-02-28T15:02:21;38.7;33.5;
56360;PMS7003;42611;51.132;13.588;2023-02-28T15:07:08;39.7;33.9;
56360;PMS7003;42611;51.132;13.588;2023-02-28T15:12:02;39.1;33.7;
56360;PMS7003;42611;51.132;13.588;2023-02-28T15:17:02;40.0;33.7;
56360;PMS7003;42611;51.132;13.588;2023-02-28T15:22:05;37.6;32.9;
56360;PMS7003;42611;51.132;13.588;2023-02-28T15:27:04;38.7;34.0;
56360;PMS7003;42611;51.132;13.588;2023-02-28T15:32:03;37.5;33.0;
56360;PMS7003;42611;51.132;13.588;2023-02-28T15:37:01;38.0;33.2;
56360;PMS7003;42611;51.132;13.588;2023-02-28T15:42:34;38.5;33.8;
56360;PMS7003;42611;51.132;13.588;2023-02-28T15:47:07;39.5;34.4;
56360;PMS7003;42611;51.132;13.588;2023-02-28T15:52:01;40.4;34.1;
56360;PMS7003;42611;51.132;13.588;2023-02-28T15:57:07;39.2;34.0;
56360;PMS7003;42611;51.132;13.588;2023-02-28T16:07:03;35.5;30.8;
56360;PMS7003;42611;51.132;13.588;2023-02-28T16:12:01;35.8;31.1;
56360;PMS7003;42611;51.132;13.588;2023-02-28T16:17:04;35.0;31.7;
56360;PMS7003;42611;51.132;13.588;2023-02-28T16:27:03;36.9;33.1;
56360;PMS7003;42611;51.132;13.588;2023-02-28T16:33:07;40.4;35.6;
56360;PMS7003;42611;51.132;13.588;2023-02-28T16:38:06;41.8;36.2;
56360;PMS7003;42611;51.132;13.588;2023-02-28T16:43:09;42.9;36.9;
56360;PMS7003;42611;51.132;13.588;2023-02-28T16:48:01;43.9;37.4;
56360;PMS7003;42611;51.132;13.588;2023-02-28T16:53:07;44.8;37.9;
56360;PMS7003;42611;51.132;13.588;2023-02-28T16:58:02;46.5;39.4;
56360;PMS7003;42611;51.132;13.588;2023-02-28T17:03:11;45.8;38.8;
56360;PMS7003;42611;51.132;13.588;2023-02-28T17:08:06;47.4;38.9;
56360;PMS7003;42611;51.132;13.588;2023-02-28T17:13:16;47.8;38.3;
56360;PMS7003;42611;51.132;13.588;2023-02-28T17:18:06;46.4;37.5;
56360;PMS7003;42611;51.132;13.588;2023-02-28T17:23:01;44.9;36.2;
56360;PMS7003;42611;51.132;13.588;2023-02-28T17:28:01;45.0;36.2;
56360;PMS7003;42611;51.132;13.588;2023-02-28T17:33:01;40.8;33.5;
56360;PMS7003;42611;51.132;13.588;2023-02-28T17:43:02;39.7;33.5;
56360;PMS7003;42611;51.132;13.588;2023-02-28T17:48:08;41.4;34.8;
56360;PMS7003;42611;51.132;13.588;2023-02-28T17:58:02;45.2;38.1;
56360;PMS7003;42611;51.132;13.588;2023-02-28T18:03:06;45.6;39.0;
56360;PMS7003;42611;51.132;13.588;2023-02-28T18:08:02;49.6;41.1;
56360;PMS7003;42611;51.132;13.588;2023-02-28T18:13:06;51.6;42.3;
56360;PMS7003;42611;51.132;13.588;2023-02-28T18:23:01;52.6;42.8;
56360;PMS7003;42611;51.132;13.588;2023-02-28T18:28:01;54.7;43.6;
56360;PMS7003;42611;51.132;13.588;2023-02-28T18:33:06;54.5;43.4;
56360;PMS7003;42611;51.132;13.588;2023-02-28T18:38:07;54.0;43.7;
56360;PMS7003;42611;51.132;13.588;2023-02-28T18:43:07;53.4;42.8;
56360;PMS7003;42611;51.132;13.588;2023-02-28T18:48:01;55.1;44.0;
56360;PMS7003;42611;51.132;13.588;2023-02-28T18:53:01;56.1;44.3;
56360;PMS7003;42611;51.132;13.588;2023-02-28T18:58:03;56.0;44.2;
56360;PMS7003;42611;51.132;13.588;2023-02-28T19:03:06;54.3;43.3;
56360;PMS7003;42611;51.132;13.588;2023-02-28T19:08:06;57.3;45.4;
56360;PMS7003;42611;51.132;13.588;2023-02-28T19:13:02;56.0;45.0;
56360;PMS7003;42611;51.132;13.588;2023-02-28T19:19:06;55.4;45.2;
56360;PMS7003;42611;51.132;13.588;2023-02-28T19:24:02;51.6;41.9;
56360;PMS7003;42611;51.132;13.588;2023-02-28T19:29:02;52.9;42.2;
56360;PMS7003;42611;51.132;13.588;2023-02-28T19:34:06;52.4;41.6;
56360;PMS7003;42611;51.132;13.588;2023-02-28T19:39:04;51.8;40.8;
56360;PMS7003;42611;51.132;13.588;2023-02-28T19:44:01;49.5;39.7;
56360;PMS7003;42611;51.132;13.588;2023-02-28T19:49:01;51.9;42.4;
56360;PMS7003;42611;51.132;13.588;2023-02-28T19:54:06;50.5;41.5;
56360;PMS7003;42611;51.132;13.588;2023-02-28T19:59:38;50.0;41.1;
56360;PMS7003;42611;51.132;13.588;2023-02-28T20:04:01;48.2;40.3;
56360;PMS7003;42611;51.132;13.588;2023-02-28T20:09:01;48.4;40.6;
56360;PMS7003;42611;51.132;13.588;2023-02-28T20:14:06;49.4;39.9;
56360;PMS7003;42611;51.132;13.588;2023-02-28T20:19:06;49.2;39.8;
56360;PMS7003;42611;51.132;13.588;2023-02-28T20:24:06;50.2;39.9;
56360;PMS7003;42611;51.132;13.588;2023-02-28T20:29:06;51.1;40.3;
56360;PMS7003;42611;51.132;13.588;2023-02-28T20:34:01;52.0;39.8;
56360;PMS7003;42611;51.132;13.588;2023-02-28T20:39:06;51.2;40.5;
56360;PMS7003;42611;51.132;13.588;2023-02-28T20:44:08;51.8;40.6;
56360;PMS7003;42611;51.132;13.588;2023-02-28T20:49:08;50.2;40.0;
56360;PMS7003;42611;51.132;13.588;2023-02-28T20:54:07;49.6;40.0;
56360;PMS7003;42611;51.132;13.588;2023-02-28T20:59:08;50.0;40.5;
56360;PMS7003;42611;51.132;13.588;2023-02-28T21:04:07;49.8;40.4;
56360;PMS7003;42611;51.132;13.588;2023-02-28T21:09:03;47.4;40.0;
56360;PMS7003;42611;51.132;13.588;2023-02-28T21:14:02;45.5;39.6;
56360;PMS7003;42611;51.132;13.588;2023-02-28T21:19:01;43.8;38.5;
56360;PMS7003;42611;51.132;13.588;2023-02-28T21:24:01;42.2;38.2;
56360;PMS7003;42611;51.132;13.588;2023-02-28T21:29:02;40.5;37.4;
56360;PMS7003;42611;51.132;13.588;2023-02-28T21:34:05;44.6;38.3;
56360;PMS7003;42611;51.132;13.588;2023-02-28T21:39:10;48.2;40.1;
56360;PMS7003;42611;51.132;13.588;2023-02-28T21:44:02;52.5;42.9;
56360;PMS7003;42611;51.132;13.588;2023-02-28T21:49:01;53.0;42.8;
56360;PMS7003;42611;51.132;13.588;2023-02-28T21:54:01;56.2;44.0;
56360;PMS7003;42611;51.132;13.588;2023-02-28T21:59:01;53.8;43.8;
56360;PMS7003;42611;51.132;13.588;2023-02-28T22:04:02;47.9;39.6;
56360;PMS7003;42611;51.132;13.588;2023-02-28T22:09:05;46.7;38.4;
56360;PMS7003;42611;51.132;13.588;2023-02-28T22:14:01;48.0;39.0;
56360;PMS7003;42611;51.132;13.588;2023-02-28T22:19:01;48.2;39.4;
56360;PMS7003;42611;51.132;13.588;2023-02-28T22:24:08;52.5;42.0;
56360;PMS7003;42611;51.132;13.588;2023-02-28T22:29:01;59.0;47.0;
56360;PMS7003;42611;51.132;13.588;2023-02-28T22:34:04;61.0;47.6;
56360;PMS7003;42611;51.132;13.588;2023-02-28T22:39:04;60.6;47.2;
56360;PMS7003;42611;51.132;13.588;2023-02-28T22:44:01;59.4;47.0;
56360;PMS7003;42611;51.132;13.588;2023-02-28T22:49:05;53.6;43.0;
56360;PMS7003;42611;51.132;13.588;2023-02-28T22:54:06;52.0;40.8;
56360;PMS7003;42611;51.132;13.588;2023-02-28T22:59:01;48.4;39.7;
56360;PMS7003;42611;51.132;13.588;2023-02-28T23:04:06;49.4;40.3;
56360;PMS7003;42611;51.132;13.588;2023-02-28T23:09:07;50.5;40.0;
56360;PMS7003;42611;51.132;13.588;2023-02-28T23:14:06;51.6;39.8;
56360;PMS7003;42611;51.132;13.588;2023-02-28T23:19:02;51.0;40.8;
56360;PMS7003;42611;51.132;13.588;2023-02-28T23:24:07;51.2;41.0;
56360;PMS7003;42611;51.132;13.588;2023-02-28T23:29:01;51.4;40.9;
56360;PMS7003;42611;51.132;13.588;2023-02-28T23:34:06;49.7;41.0;
56360;PMS7003;42611;51.132;13.588;2023-02-28T23:40:01;51.0;43.3;
56360;PMS7003;42611;51.132;13.588;2023-02-28T23:45:07;53.2;44.4;
56360;PMS7003;42611;51.132;13.588;2023-02-28T23:50:06;53.7;44.8;
56360;PMS7003;42611;51.132;13.588;2023-02-28T23:55:06;50.7;44.0;
